sensor_id;sensor_type;location;lat;lon;timestamp;P1;durP1;ratioP1;P2;durP2;ratioP2
12840;SDS011;6487;48.626;12.486;2022-10-16T00:01:43;5.00;;;1.60;;
12840;SDS011;6487;48.626;12.486;2022-10-16T00:04:12;5.57;;;1.60;;
12840;SDS011;6487;48.626;12.486;2022-10-16T00:06:42;2.30;;;1.33;;
12840;SDS011;6487;48.626;12.486;2022-10-16T00:09:10;2.50;;;1.30;;
12840;SDS011;6487;48.626;12.486;2022-10-16T00:11:39;4.43;;;1.67;;
12840;SDS011;6487;48.626;12.486;2022-10-16T00:14:09;1.77;;;1.67;;
12840;SDS011;6487;48.626;12.486;2022-10-16T00:16:40;2.30;;;1.53;;
12840;SDS011;6487;48.626;12.486;2022-10-16T00:19:09;3.83;;;1.43;;
12840;SDS011;6487;48.626;12.486;2022-10-16T00:21:39;3.80;;;1.40;;
12840;SDS011;6487;48.626;12.486;2022-10-16T00:24:09;3.13;;;1.50;;
12840;SDS011;6487;48.626;12.486;2022-10-16T00:26:38;4.63;;;1.70;;
12840;SDS011;6487;48.626;12.486;2022-10-16T00:29:07;2.87;;;1.47;;
12840;SDS011;6487;48.626;12.486;2022-10-16T00:31:36;4.97;;;1.90;;
12840;SDS011;6487;48.626;12.486;2022-10-16T00:34:04;4.03;;;1.40;;
12840;SDS011;6487;48.626;12.486;2022-10-16T00:36:32;5.90;;;2.20;;
12840;SDS011;6487;48.626;12.486;2022-10-16T00:39:01;7.10;;;1.43;;
12840;SDS011;6487;48.626;12.486;2022-10-16T00:41:31;6.20;;;1.70;;
12840;SDS011;6487;48.626;12.486;2022-10-16T00:44:01;1.43;;;1.20;;
12840;SDS011;6487;48.626;12.486;2022-10-16T00:46:51;2.00;;;1.37;;
12840;SDS011;6487;48.626;12.486;2022-10-16T00:49:19;3.97;;;1.83;;
12840;SDS011;6487;48.626;12.486;2022-10-16T00:51:49;6.13;;;1.40;;
12840;SDS011;6487;48.626;12.486;2022-10-16T00:54:21;4.40;;;1.47;;
12840;SDS011;6487;48.626;12.486;2022-10-16T00:56:53;2.03;;;1.60;;
12840;SDS011;6487;48.626;12.486;2022-10-16T00:59:23;2.20;;;1.57;;
12840;SDS011;6487;48.626;12.486;2022-10-16T01:01:55;2.13;;;1.63;;
12840;SDS011;6487;48.626;12.486;2022-10-16T01:04:25;6.20;;;1.80;;
12840;SDS011;6487;48.626;12.486;2022-10-16T01:06:55;4.10;;;2.00;;
12840;SDS011;6487;48.626;12.486;2022-10-16T01:09:34;7.33;;;1.67;;
12840;SDS011;6487;48.626;12.486;2022-10-16T01:12:16;2.40;;;1.37;;
12840;SDS011;6487;48.626;12.486;2022-10-16T01:14:52;2.03;;;1.50;;
12840;SDS011;6487;48.626;12.486;2022-10-16T01:17:28;2.67;;;1.23;;
12840;SDS011;6487;48.626;12.486;2022-10-16T01:20:04;3.33;;;1.90;;
12840;SDS011;6487;48.626;12.486;2022-10-16T01:22:39;1.60;;;1.50;;
12840;SDS011;6487;48.626;12.486;2022-10-16T01:25:25;4.67;;;1.20;;
12840;SDS011;6487;48.626;12.486;2022-10-16T01:28:13;2.13;;;1.20;;
12840;SDS011;6487;48.626;12.486;2022-10-16T01:30:43;2.63;;;1.17;;
12840;SDS011;6487;48.626;12.486;2022-10-16T01:33:15;3.00;;;1.40;;
12840;SDS011;6487;48.626;12.486;2022-10-16T01:35:50;1.40;;;1.30;;
12840;SDS011;6487;48.626;12.486;2022-10-16T01:38:23;4.13;;;1.20;;
12840;SDS011;6487;48.626;12.486;2022-10-16T01:41:00;5.13;;;1.27;;
12840;SDS011;6487;48.626;12.486;2022-10-16T01:43:35;3.23;;;1.33;;
12840;SDS011;6487;48.626;12.486;2022-10-16T01:46:06;3.33;;;1.40;;
12840;SDS011;6487;48.626;12.486;2022-10-16T01:48:37;10.47;;;1.73;;
12840;SDS011;6487;48.626;12.486;2022-10-16T01:51:08;4.20;;;1.37;;
12840;SDS011;6487;48.626;12.486;2022-10-16T01:53:40;2.03;;;1.80;;
12840;SDS011;6487;48.626;12.486;2022-10-16T01:56:12;3.43;;;1.30;;
12840;SDS011;6487;48.626;12.486;2022-10-16T01:58:44;2.17;;;1.57;;
12840;SDS011;6487;48.626;12.486;2022-10-16T02:01:19;3.67;;;1.63;;
12840;SDS011;6487;48.626;12.486;2022-10-16T02:03:51;2.33;;;1.30;;
12840;SDS011;6487;48.626;12.486;2022-10-16T02:06:23;3.97;;;1.30;;
12840;SDS011;6487;48.626;12.486;2022-10-16T02:08:52;3.37;;;1.20;;
12840;SDS011;6487;48.626;12.486;2022-10-16T02:11:21;3.13;;;1.37;;
12840;SDS011;6487;48.626;12.486;2022-10-16T02:13:52;3.60;;;1.70;;
12840;SDS011;6487;48.626;12.486;2022-10-16T02:16:32;1.30;;;1.20;;
12840;SDS011;6487;48.626;12.486;2022-10-16T02:19:01;3.00;;;1.40;;
12840;SDS011;6487;48.626;12.486;2022-10-16T02:21:32;2.93;;;1.70;;
12840;SDS011;6487;48.626;12.486;2022-10-16T02:24:09;5.57;;;1.73;;
12840;SDS011;6487;48.626;12.486;2022-10-16T02:26:44;3.53;;;1.53;;
12840;SDS011;6487;48.626;12.486;2022-10-16T02:29:18;3.10;;;1.33;;
12840;SDS011;6487;48.626;12.486;2022-10-16T02:31:52;4.70;;;1.33;;
12840;SDS011;6487;48.626;12.486;2022-10-16T02:34:25;3.17;;;1.40;;
12840;SDS011;6487;48.626;12.486;2022-10-16T02:36:55;2.73;;;1.53;;
12840;SDS011;6487;48.626;12.486;2022-10-16T02:39:25;4.03;;;1.67;;
12840;SDS011;6487;48.626;12.486;2022-10-16T02:41:54;2.40;;;1.40;;
12840;SDS011;6487;48.626;12.486;2022-10-16T02:44:24;3.70;;;1.40;;
12840;SDS011;6487;48.626;12.486;2022-10-16T02:46:52;2.10;;;1.50;;
12840;SDS011;6487;48.626;12.486;2022-10-16T02:49:20;2.07;;;1.53;;
12840;SDS011;6487;48.626;12.486;2022-10-16T02:51:49;3.97;;;1.97;;
12840;SDS011;6487;48.626;12.486;2022-10-16T02:54:17;5.37;;;2.20;;
12840;SDS011;6487;48.626;12.486;2022-10-16T02:56:45;4.37;;;1.80;;
12840;SDS011;6487;48.626;12.486;2022-10-16T02:59:14;8.87;;;1.90;;
12840;SDS011;6487;48.626;12.486;2022-10-16T03:01:43;2.27;;;1.70;;
12840;SDS011;6487;48.626;12.486;2022-10-16T03:04:12;5.20;;;2.00;;
12840;SDS011;6487;48.626;12.486;2022-10-16T03:06:40;7.67;;;2.20;;
12840;SDS011;6487;48.626;12.486;2022-10-16T03:09:08;5.50;;;1.70;;
12840;SDS011;6487;48.626;12.486;2022-10-16T03:14:08;1.80;;;1.63;;
12840;SDS011;6487;48.626;12.486;2022-10-16T03:16:36;1.60;;;1.50;;
12840;SDS011;6487;48.626;12.486;2022-10-16T03:19:06;2.47;;;1.60;;
12840;SDS011;6487;48.626;12.486;2022-10-16T03:21:34;5.00;;;2.10;;
12840;SDS011;6487;48.626;12.486;2022-10-16T03:24:03;3.53;;;1.50;;
12840;SDS011;6487;48.626;12.486;2022-10-16T03:26:32;6.97;;;2.17;;
12840;SDS011;6487;48.626;12.486;2022-10-16T03:29:00;2.60;;;1.40;;
12840;SDS011;6487;48.626;12.486;2022-10-16T03:31:29;4.30;;;1.40;;
12840;SDS011;6487;48.626;12.486;2022-10-16T03:33:58;2.13;;;1.40;;
12840;SDS011;6487;48.626;12.486;2022-10-16T03:36:27;3.60;;;1.30;;
12840;SDS011;6487;48.626;12.486;2022-10-16T03:38:56;4.90;;;1.63;;
12840;SDS011;6487;48.626;12.486;2022-10-16T03:41:24;2.70;;;1.57;;
12840;SDS011;6487;48.626;12.486;2022-10-16T03:43:52;5.93;;;1.67;;
12840;SDS011;6487;48.626;12.486;2022-10-16T03:46:20;4.27;;;1.80;;
12840;SDS011;6487;48.626;12.486;2022-10-16T03:48:49;6.83;;;1.70;;
12840;SDS011;6487;48.626;12.486;2022-10-16T03:51:17;2.07;;;1.60;;
12840;SDS011;6487;48.626;12.486;2022-10-16T03:53:47;1.50;;;1.40;;
12840;SDS011;6487;48.626;12.486;2022-10-16T03:56:15;4.43;;;1.60;;
12840;SDS011;6487;48.626;12.486;2022-10-16T03:58:43;3.50;;;1.87;;
12840;SDS011;6487;48.626;12.486;2022-10-16T04:01:11;4.90;;;1.73;;
12840;SDS011;6487;48.626;12.486;2022-10-16T04:03:40;2.60;;;1.60;;
12840;SDS011;6487;48.626;12.486;2022-10-16T04:06:08;1.70;;;1.30;;
12840;SDS011;6487;48.626;12.486;2022-10-16T04:08:36;2.10;;;1.80;;
12840;SDS011;6487;48.626;12.486;2022-10-16T04:11:06;2.43;;;1.70;;
12840;SDS011;6487;48.626;12.486;2022-10-16T04:13:35;3.17;;;2.17;;
12840;SDS011;6487;48.626;12.486;2022-10-16T04:16:03;6.40;;;3.27;;
12840;SDS011;6487;48.626;12.486;2022-10-16T04:18:31;3.20;;;2.30;;
12840;SDS011;6487;48.626;12.486;2022-10-16T04:21:04;2.73;;;2.53;;
12840;SDS011;6487;48.626;12.486;2022-10-16T04:23:33;4.90;;;2.17;;
12840;SDS011;6487;48.626;12.486;2022-10-16T04:26:01;4.37;;;2.70;;
12840;SDS011;6487;48.626;12.486;2022-10-16T04:28:31;3.37;;;2.53;;
12840;SDS011;6487;48.626;12.486;2022-10-16T04:30:59;3.07;;;2.20;;
12840;SDS011;6487;48.626;12.486;2022-10-16T04:33:31;6.07;;;4.93;;
12840;SDS011;6487;48.626;12.486;2022-10-16T04:35:59;8.73;;;6.33;;
12840;SDS011;6487;48.626;12.486;2022-10-16T04:38:29;10.20;;;5.90;;
12840;SDS011;6487;48.626;12.486;2022-10-16T04:40:57;6.57;;;5.00;;
12840;SDS011;6487;48.626;12.486;2022-10-16T04:43:26;7.23;;;4.07;;
12840;SDS011;6487;48.626;12.486;2022-10-16T04:45:55;3.57;;;3.20;;
12840;SDS011;6487;48.626;12.486;2022-10-16T04:48:23;4.30;;;3.27;;
12840;SDS011;6487;48.626;12.486;2022-10-16T04:50:52;9.63;;;3.13;;
12840;SDS011;6487;48.626;12.486;2022-10-16T04:53:20;4.27;;;2.80;;
12840;SDS011;6487;48.626;12.486;2022-10-16T04:55:49;4.90;;;2.57;;
12840;SDS011;6487;48.626;12.486;2022-10-16T04:58:17;6.93;;;2.70;;
12840;SDS011;6487;48.626;12.486;2022-10-16T05:00:46;6.17;;;2.83;;
12840;SDS011;6487;48.626;12.486;2022-10-16T05:03:15;5.93;;;3.10;;
12840;SDS011;6487;48.626;12.486;2022-10-16T05:05:44;5.83;;;2.90;;
12840;SDS011;6487;48.626;12.486;2022-10-16T05:08:14;7.13;;;3.77;;
12840;SDS011;6487;48.626;12.486;2022-10-16T05:10:43;7.80;;;4.13;;
12840;SDS011;6487;48.626;12.486;2022-10-16T05:13:12;6.40;;;4.43;;
12840;SDS011;6487;48.626;12.486;2022-10-16T05:15:40;4.87;;;4.17;;
12840;SDS011;6487;48.626;12.486;2022-10-16T05:18:09;4.57;;;3.40;;
12840;SDS011;6487;48.626;12.486;2022-10-16T05:20:38;3.87;;;3.30;;
12840;SDS011;6487;48.626;12.486;2022-10-16T05:23:07;9.20;;;3.67;;
12840;SDS011;6487;48.626;12.486;2022-10-16T05:25:36;3.60;;;3.30;;
12840;SDS011;6487;48.626;12.486;2022-10-16T05:28:04;3.30;;;3.00;;
12840;SDS011;6487;48.626;12.486;2022-10-16T05:30:33;5.90;;;3.90;;
12840;SDS011;6487;48.626;12.486;2022-10-16T05:33:01;6.30;;;3.80;;
12840;SDS011;6487;48.626;12.486;2022-10-16T05:35:29;3.20;;;2.90;;
12840;SDS011;6487;48.626;12.486;2022-10-16T05:37:59;5.03;;;3.60;;
12840;SDS011;6487;48.626;12.486;2022-10-16T05:40:27;4.20;;;3.80;;
12840;SDS011;6487;48.626;12.486;2022-10-16T05:42:56;4.40;;;3.00;;
12840;SDS011;6487;48.626;12.486;2022-10-16T05:45:24;4.07;;;3.67;;
12840;SDS011;6487;48.626;12.486;2022-10-16T05:47:52;6.80;;;3.30;;
12840;SDS011;6487;48.626;12.486;2022-10-16T05:50:20;4.07;;;3.40;;
12840;SDS011;6487;48.626;12.486;2022-10-16T05:52:49;7.50;;;3.00;;
12840;SDS011;6487;48.626;12.486;2022-10-16T05:55:18;8.93;;;3.00;;
12840;SDS011;6487;48.626;12.486;2022-10-16T05:57:46;4.40;;;2.63;;
12840;SDS011;6487;48.626;12.486;2022-10-16T06:00:15;3.27;;;2.60;;
12840;SDS011;6487;48.626;12.486;2022-10-16T06:02:43;2.77;;;2.53;;
12840;SDS011;6487;48.626;12.486;2022-10-16T06:05:12;3.40;;;3.03;;
12840;SDS011;6487;48.626;12.486;2022-10-16T06:07:40;4.13;;;2.87;;
12840;SDS011;6487;48.626;12.486;2022-10-16T06:10:08;4.20;;;2.80;;
12840;SDS011;6487;48.626;12.486;2022-10-16T06:12:38;4.40;;;2.97;;
12840;SDS011;6487;48.626;12.486;2022-10-16T06:15:07;4.30;;;2.53;;
12840;SDS011;6487;48.626;12.486;2022-10-16T06:17:36;4.90;;;3.20;;
12840;SDS011;6487;48.626;12.486;2022-10-16T06:20:04;5.43;;;3.00;;
12840;SDS011;6487;48.626;12.486;2022-10-16T06:22:33;3.23;;;2.47;;
12840;SDS011;6487;48.626;12.486;2022-10-16T06:25:03;2.73;;;2.53;;
12840;SDS011;6487;48.626;12.486;2022-10-16T06:27:32;3.27;;;2.53;;
12840;SDS011;6487;48.626;12.486;2022-10-16T06:30:02;3.70;;;2.70;;
12840;SDS011;6487;48.626;12.486;2022-10-16T06:32:31;2.50;;;2.30;;
12840;SDS011;6487;48.626;12.486;2022-10-16T06:35:00;2.50;;;2.30;;
12840;SDS011;6487;48.626;12.486;2022-10-16T06:37:28;3.97;;;2.43;;
12840;SDS011;6487;48.626;12.486;2022-10-16T06:39:56;3.13;;;2.50;;
12840;SDS011;6487;48.626;12.486;2022-10-16T06:42:26;4.77;;;2.53;;
12840;SDS011;6487;48.626;12.486;2022-10-16T06:44:54;4.73;;;2.43;;
12840;SDS011;6487;48.626;12.486;2022-10-16T06:47:24;4.43;;;2.80;;
12840;SDS011;6487;48.626;12.486;2022-10-16T06:49:52;3.50;;;2.47;;
12840;SDS011;6487;48.626;12.486;2022-10-16T06:52:21;2.60;;;2.40;;
12840;SDS011;6487;48.626;12.486;2022-10-16T06:54:49;2.40;;;2.20;;
12840;SDS011;6487;48.626;12.486;2022-10-16T06:57:18;4.27;;;2.47;;
12840;SDS011;6487;48.626;12.486;2022-10-16T06:59:46;3.03;;;2.83;;
12840;SDS011;6487;48.626;12.486;2022-10-16T07:02:20;5.93;;;4.90;;
12840;SDS011;6487;48.626;12.486;2022-10-16T07:04:50;5.67;;;4.83;;
12840;SDS011;6487;48.626;12.486;2022-10-16T07:07:19;7.10;;;5.03;;
12840;SDS011;6487;48.626;12.486;2022-10-16T07:09:47;10.20;;;7.53;;
12840;SDS011;6487;48.626;12.486;2022-10-16T07:12:15;13.47;;;10.67;;
12840;SDS011;6487;48.626;12.486;2022-10-16T07:14:44;8.83;;;7.33;;
12840;SDS011;6487;48.626;12.486;2022-10-16T07:17:12;5.60;;;4.97;;
12840;SDS011;6487;48.626;12.486;2022-10-16T07:19:40;7.33;;;3.93;;
12840;SDS011;6487;48.626;12.486;2022-10-16T07:22:10;3.87;;;3.47;;
12840;SDS011;6487;48.626;12.486;2022-10-16T07:24:38;3.07;;;2.50;;
12840;SDS011;6487;48.626;12.486;2022-10-16T07:27:06;4.27;;;2.87;;
12840;SDS011;6487;48.626;12.486;2022-10-16T07:29:34;4.57;;;2.90;;
12840;SDS011;6487;48.626;12.486;2022-10-16T07:32:03;6.73;;;3.30;;
12840;SDS011;6487;48.626;12.486;2022-10-16T07:34:31;4.20;;;3.80;;
12840;SDS011;6487;48.626;12.486;2022-10-16T07:36:59;3.77;;;3.30;;
12840;SDS011;6487;48.626;12.486;2022-10-16T07:39:29;5.23;;;3.40;;
12840;SDS011;6487;48.626;12.486;2022-10-16T07:41:57;3.43;;;3.13;;
12840;SDS011;6487;48.626;12.486;2022-10-16T07:44:26;3.17;;;2.87;;
12840;SDS011;6487;48.626;12.486;2022-10-16T07:46:54;3.60;;;2.60;;
12840;SDS011;6487;48.626;12.486;2022-10-16T07:49:22;5.80;;;2.63;;
12840;SDS011;6487;48.626;12.486;2022-10-16T07:51:50;4.03;;;3.63;;
12840;SDS011;6487;48.626;12.486;2022-10-16T07:54:19;15.53;;;10.23;;
12840;SDS011;6487;48.626;12.486;2022-10-16T07:56:48;8.30;;;7.70;;
12840;SDS011;6487;48.626;12.486;2022-10-16T07:59:17;8.50;;;7.70;;
12840;SDS011;6487;48.626;12.486;2022-10-16T08:01:45;5.90;;;5.40;;
12840;SDS011;6487;48.626;12.486;2022-10-16T08:04:13;6.47;;;5.13;;
12840;SDS011;6487;48.626;12.486;2022-10-16T08:06:42;4.57;;;4.17;;
12840;SDS011;6487;48.626;12.486;2022-10-16T08:09:10;3.90;;;3.50;;
12840;SDS011;6487;48.626;12.486;2022-10-16T08:11:38;4.83;;;4.27;;
12840;SDS011;6487;48.626;12.486;2022-10-16T08:14:08;5.30;;;3.93;;
12840;SDS011;6487;48.626;12.486;2022-10-16T08:16:36;7.57;;;4.43;;
12840;SDS011;6487;48.626;12.486;2022-10-16T08:19:04;4.63;;;4.23;;
12840;SDS011;6487;48.626;12.486;2022-10-16T08:21:33;4.70;;;4.30;;
12840;SDS011;6487;48.626;12.486;2022-10-16T08:24:01;5.40;;;3.67;;
12840;SDS011;6487;48.626;12.486;2022-10-16T08:26:29;5.47;;;3.50;;
12840;SDS011;6487;48.626;12.486;2022-10-16T08:28:58;4.13;;;3.63;;
12840;SDS011;6487;48.626;12.486;2022-10-16T08:31:27;3.90;;;3.07;;
12840;SDS011;6487;48.626;12.486;2022-10-16T08:33:56;3.40;;;3.10;;
12840;SDS011;6487;48.626;12.486;2022-10-16T08:36:24;3.07;;;2.87;;
12840;SDS011;6487;48.626;12.486;2022-10-16T08:38:52;3.20;;;2.93;;
12840;SDS011;6487;48.626;12.486;2022-10-16T08:41:23;8.27;;;3.83;;
12840;SDS011;6487;48.626;12.486;2022-10-16T08:44:27;5.20;;;4.80;;
12840;SDS011;6487;48.626;12.486;2022-10-16T08:47:15;7.10;;;4.23;;
12840;SDS011;6487;48.626;12.486;2022-10-16T08:49:53;3.50;;;3.20;;
12840;SDS011;6487;48.626;12.486;2022-10-16T08:52:28;3.13;;;2.83;;
12840;SDS011;6487;48.626;12.486;2022-10-16T08:55:00;2.93;;;2.70;;
12840;SDS011;6487;48.626;12.486;2022-10-16T08:57:28;2.70;;;2.50;;
12840;SDS011;6487;48.626;12.486;2022-10-16T08:59:59;2.17;;;2.00;;
12840;SDS011;6487;48.626;12.486;2022-10-16T09:02:35;6.40;;;4.77;;
12840;SDS011;6487;48.626;12.486;2022-10-16T09:05:20;3.07;;;2.77;;
12840;SDS011;6487;48.626;12.486;2022-10-16T09:08:06;2.83;;;2.60;;
12840;SDS011;6487;48.626;12.486;2022-10-16T09:10:44;2.07;;;1.73;;
12840;SDS011;6487;48.626;12.486;2022-10-16T09:13:21;2.70;;;2.37;;
12840;SDS011;6487;48.626;12.486;2022-10-16T09:15:56;2.13;;;1.93;;
12840;SDS011;6487;48.626;12.486;2022-10-16T09:18:41;1.80;;;1.70;;
12840;SDS011;6487;48.626;12.486;2022-10-16T09:21:18;1.80;;;1.70;;
12840;SDS011;6487;48.626;12.486;2022-10-16T09:23:51;1.40;;;1.30;;
12840;SDS011;6487;48.626;12.486;2022-10-16T09:26:19;1.80;;;1.60;;
12840;SDS011;6487;48.626;12.486;2022-10-16T09:28:49;4.90;;;2.10;;
12840;SDS011;6487;48.626;12.486;2022-10-16T09:31:21;1.70;;;1.60;;
12840;SDS011;6487;48.626;12.486;2022-10-16T09:33:52;1.77;;;1.67;;
12840;SDS011;6487;48.626;12.486;2022-10-16T09:36:25;2.27;;;1.47;;
12840;SDS011;6487;48.626;12.486;2022-10-16T09:39:01;2.20;;;1.90;;
12840;SDS011;6487;48.626;12.486;2022-10-16T09:41:33;1.47;;;1.37;;
12840;SDS011;6487;48.626;12.486;2022-10-16T09:44:03;1.33;;;1.13;;
12840;SDS011;6487;48.626;12.486;2022-10-16T09:46:45;1.70;;;1.23;;
12840;SDS011;6487;48.626;12.486;2022-10-16T09:49:20;3.10;;;1.50;;
12840;SDS011;6487;48.626;12.486;2022-10-16T09:51:51;1.33;;;1.23;;
12840;SDS011;6487;48.626;12.486;2022-10-16T09:54:31;1.40;;;1.20;;
12840;SDS011;6487;48.626;12.486;2022-10-16T09:57:10;1.50;;;1.40;;
12840;SDS011;6487;48.626;12.486;2022-10-16T09:59:45;2.05;;;1.23;;
12840;SDS011;6487;48.626;12.486;2022-10-16T10:02:15;3.40;;;1.90;;
12840;SDS011;6487;48.626;12.486;2022-10-16T10:04:49;1.58;;;1.38;;
12840;SDS011;6487;48.626;12.486;2022-10-16T10:07:24;1.27;;;1.08;;
12840;SDS011;6487;48.626;12.486;2022-10-16T10:09:55;2.67;;;1.10;;
12840;SDS011;6487;48.626;12.486;2022-10-16T10:12:25;1.00;;;1.00;;
12840;SDS011;6487;48.626;12.486;2022-10-16T10:14:56;2.83;;;1.40;;
12840;SDS011;6487;48.626;12.486;2022-10-16T10:17:30;2.60;;;1.30;;
12840;SDS011;6487;48.626;12.486;2022-10-16T10:20:00;1.35;;;1.25;;
12840;SDS011;6487;48.626;12.486;2022-10-16T10:22:49;1.42;;;1.33;;
12840;SDS011;6487;48.626;12.486;2022-10-16T10:25:26;2.58;;;1.58;;
12840;SDS011;6487;48.626;12.486;2022-10-16T10:28:17;1.50;;;1.40;;
12840;SDS011;6487;48.626;12.486;2022-10-16T10:31:02;4.35;;;2.00;;
12840;SDS011;6487;48.626;12.486;2022-10-16T10:33:38;2.78;;;2.25;;
12840;SDS011;6487;48.626;12.486;2022-10-16T10:36:16;1.40;;;1.30;;
12840;SDS011;6487;48.626;12.486;2022-10-16T10:38:57;3.97;;;1.35;;
12840;SDS011;6487;48.626;12.486;2022-10-16T10:44:33;1.52;;;1.40;;
12840;SDS011;6487;48.626;12.486;2022-10-16T10:47:21;1.73;;;1.00;;
12840;SDS011;6487;48.626;12.486;2022-10-16T10:50:06;1.45;;;1.35;;
12840;SDS011;6487;48.626;12.486;2022-10-16T10:52:47;1.58;;;1.20;;
12840;SDS011;6487;48.626;12.486;2022-10-16T10:55:29;3.75;;;1.35;;
12840;SDS011;6487;48.626;12.486;2022-10-16T10:58:10;2.58;;;1.40;;
12840;SDS011;6487;48.626;12.486;2022-10-16T11:01:15;1.48;;;1.38;;
12840;SDS011;6487;48.626;12.486;2022-10-16T11:03:55;2.47;;;1.27;;
12840;SDS011;6487;48.626;12.486;2022-10-16T11:06:59;1.73;;;1.52;;
12840;SDS011;6487;48.626;12.486;2022-10-16T11:09:33;1.50;;;1.40;;
12840;SDS011;6487;48.626;12.486;2022-10-16T11:12:06;1.42;;;1.13;;
12840;SDS011;6487;48.626;12.486;2022-10-16T11:14:43;2.38;;;1.20;;
12840;SDS011;6487;48.626;12.486;2022-10-16T11:17:17;1.23;;;1.15;;
12840;SDS011;6487;48.626;12.486;2022-10-16T11:19:53;2.95;;;1.50;;
12840;SDS011;6487;48.626;12.486;2022-10-16T11:22:26;1.40;;;1.30;;
12840;SDS011;6487;48.626;12.486;2022-10-16T11:25:02;2.88;;;1.33;;
12840;SDS011;6487;48.626;12.486;2022-10-16T11:27:43;1.63;;;1.23;;
12840;SDS011;6487;48.626;12.486;2022-10-16T11:30:18;2.83;;;1.40;;
12840;SDS011;6487;48.626;12.486;2022-10-16T11:32:52;1.73;;;1.40;;
12840;SDS011;6487;48.626;12.486;2022-10-16T11:35:33;1.70;;;1.60;;
12840;SDS011;6487;48.626;12.486;2022-10-16T11:38:10;1.50;;;1.40;;
12840;SDS011;6487;48.626;12.486;2022-10-16T11:40:45;2.33;;;1.42;;
12840;SDS011;6487;48.626;12.486;2022-10-16T11:43:20;1.50;;;1.40;;
12840;SDS011;6487;48.626;12.486;2022-10-16T11:45:53;1.38;;;1.20;;
12840;SDS011;6487;48.626;12.486;2022-10-16T11:48:26;1.38;;;1.27;;
12840;SDS011;6487;48.626;12.486;2022-10-16T11:51:02;2.05;;;1.50;;
12840;SDS011;6487;48.626;12.486;2022-10-16T11:53:39;1.85;;;1.60;;
12840;SDS011;6487;48.626;12.486;2022-10-16T11:56:15;2.22;;;1.20;;
12840;SDS011;6487;48.626;12.486;2022-10-16T11:58:50;3.33;;;1.67;;
12840;SDS011;6487;48.626;12.486;2022-10-16T12:01:27;3.72;;;1.50;;
12840;SDS011;6487;48.626;12.486;2022-10-16T12:04:06;4.30;;;1.63;;
12840;SDS011;6487;48.626;12.486;2022-10-16T12:06:47;3.60;;;1.50;;
12840;SDS011;6487;48.626;12.486;2022-10-16T12:09:22;1.65;;;1.50;;
12840;SDS011;6487;48.626;12.486;2022-10-16T12:11:56;1.50;;;1.25;;
12840;SDS011;6487;48.626;12.486;2022-10-16T12:14:35;2.28;;;1.33;;
12840;SDS011;6487;48.626;12.486;2022-10-16T12:17:26;1.33;;;1.23;;
12840;SDS011;6487;48.626;12.486;2022-10-16T12:20:18;2.58;;;1.35;;
12840;SDS011;6487;48.626;12.486;2022-10-16T12:22:59;1.30;;;1.20;;
12840;SDS011;6487;48.626;12.486;2022-10-16T12:25:30;3.10;;;1.50;;
12840;SDS011;6487;48.626;12.486;2022-10-16T12:28:03;4.15;;;2.33;;
12840;SDS011;6487;48.626;12.486;2022-10-16T12:30:34;1.40;;;1.30;;
12840;SDS011;6487;48.626;12.486;2022-10-16T12:33:04;7.32;;;1.60;;
12840;SDS011;6487;48.626;12.486;2022-10-16T12:35:43;1.52;;;1.42;;
12840;SDS011;6487;48.626;12.486;2022-10-16T12:38:14;1.50;;;1.40;;
12840;SDS011;6487;48.626;12.486;2022-10-16T12:40:46;2.33;;;1.67;;
12840;SDS011;6487;48.626;12.486;2022-10-16T12:43:35;1.60;;;1.40;;
12840;SDS011;6487;48.626;12.486;2022-10-16T12:46:21;2.10;;;1.50;;
12840;SDS011;6487;48.626;12.486;2022-10-16T12:49:22;4.25;;;1.27;;
12840;SDS011;6487;48.626;12.486;2022-10-16T12:51:58;2.03;;;1.40;;
12840;SDS011;6487;48.626;12.486;2022-10-16T12:54:27;1.65;;;1.40;;
12840;SDS011;6487;48.626;12.486;2022-10-16T12:57:02;1.83;;;1.70;;
12840;SDS011;6487;48.626;12.486;2022-10-16T12:59:48;2.38;;;1.60;;
12840;SDS011;6487;48.626;12.486;2022-10-16T13:05:41;3.17;;;1.50;;
12840;SDS011;6487;48.626;12.486;2022-10-16T13:08:25;1.20;;;1.10;;
12840;SDS011;6487;48.626;12.486;2022-10-16T13:11:20;1.65;;;1.55;;
12840;SDS011;6487;48.626;12.486;2022-10-16T13:14:03;3.75;;;1.42;;
12840;SDS011;6487;48.626;12.486;2022-10-16T13:16:55;1.52;;;1.25;;
12840;SDS011;6487;48.626;12.486;2022-10-16T13:19:33;1.50;;;1.40;;
12840;SDS011;6487;48.626;12.486;2022-10-16T13:22:12;2.20;;;1.40;;
12840;SDS011;6487;48.626;12.486;2022-10-16T13:24:56;1.70;;;1.60;;
12840;SDS011;6487;48.626;12.486;2022-10-16T13:27:43;4.68;;;1.52;;
12840;SDS011;6487;48.626;12.486;2022-10-16T13:30:21;3.13;;;1.50;;
12840;SDS011;6487;48.626;12.486;2022-10-16T13:33:00;2.38;;;1.30;;
12840;SDS011;6487;48.626;12.486;2022-10-16T13:35:31;2.20;;;1.42;;
12840;SDS011;6487;48.626;12.486;2022-10-16T13:38:12;1.65;;;1.55;;
12840;SDS011;6487;48.626;12.486;2022-10-16T13:40:52;1.58;;;1.48;;
12840;SDS011;6487;48.626;12.486;2022-10-16T13:43:27;2.15;;;1.60;;
12840;SDS011;6487;48.626;12.486;2022-10-16T13:46:00;3.42;;;1.50;;
12840;SDS011;6487;48.626;12.486;2022-10-16T13:48:31;2.92;;;1.63;;
12840;SDS011;6487;48.626;12.486;2022-10-16T13:51:05;2.92;;;1.80;;
12840;SDS011;6487;48.626;12.486;2022-10-16T13:53:40;2.80;;;1.70;;
12840;SDS011;6487;48.626;12.486;2022-10-16T13:56:10;2.67;;;1.58;;
12840;SDS011;6487;48.626;12.486;2022-10-16T13:58:41;2.57;;;1.70;;
12840;SDS011;6487;48.626;12.486;2022-10-16T14:01:15;1.75;;;1.60;;
12840;SDS011;6487;48.626;12.486;2022-10-16T14:03:47;5.93;;;1.77;;
12840;SDS011;6487;48.626;12.486;2022-10-16T14:06:17;1.87;;;1.50;;
12840;SDS011;6487;48.626;12.486;2022-10-16T14:08:50;1.50;;;1.40;;
12840;SDS011;6487;48.626;12.486;2022-10-16T14:11:33;1.73;;;1.63;;
12840;SDS011;6487;48.626;12.486;2022-10-16T14:14:05;2.67;;;1.70;;
12840;SDS011;6487;48.626;12.486;2022-10-16T14:16:40;1.60;;;1.50;;
12840;SDS011;6487;48.626;12.486;2022-10-16T14:19:15;2.00;;;1.60;;
12840;SDS011;6487;48.626;12.486;2022-10-16T14:21:48;1.67;;;1.50;;
12840;SDS011;6487;48.626;12.486;2022-10-16T14:24:25;3.40;;;1.70;;
12840;SDS011;6487;48.626;12.486;2022-10-16T14:26:59;1.83;;;1.43;;
12840;SDS011;6487;48.626;12.486;2022-10-16T14:29:28;2.47;;;1.67;;
12840;SDS011;6487;48.626;12.486;2022-10-16T14:31:58;2.00;;;1.57;;
12840;SDS011;6487;48.626;12.486;2022-10-16T14:34:31;1.70;;;1.53;;
12840;SDS011;6487;48.626;12.486;2022-10-16T14:37:02;4.60;;;1.53;;
12840;SDS011;6487;48.626;12.486;2022-10-16T14:39:41;2.40;;;1.60;;
12840;SDS011;6487;48.626;12.486;2022-10-16T14:42:11;2.97;;;1.50;;
12840;SDS011;6487;48.626;12.486;2022-10-16T14:44:43;4.70;;;1.40;;
12840;SDS011;6487;48.626;12.486;2022-10-16T14:47:13;2.90;;;1.80;;
12840;SDS011;6487;48.626;12.486;2022-10-16T14:49:50;3.57;;;2.60;;
12840;SDS011;6487;48.626;12.486;2022-10-16T14:52:19;8.23;;;2.47;;
12840;SDS011;6487;48.626;12.486;2022-10-16T14:54:48;1.97;;;1.77;;
12840;SDS011;6487;48.626;12.486;2022-10-16T14:57:17;2.13;;;2.03;;
12840;SDS011;6487;48.626;12.486;2022-10-16T14:59:48;4.23;;;2.57;;
12840;SDS011;6487;48.626;12.486;2022-10-16T15:02:20;5.70;;;5.20;;
12840;SDS011;6487;48.626;12.486;2022-10-16T15:04:56;5.70;;;4.67;;
12840;SDS011;6487;48.626;12.486;2022-10-16T15:07:26;3.60;;;3.30;;
12840;SDS011;6487;48.626;12.486;2022-10-16T15:09:55;3.80;;;3.50;;
12840;SDS011;6487;48.626;12.486;2022-10-16T15:12:24;4.43;;;3.13;;
12840;SDS011;6487;48.626;12.486;2022-10-16T15:14:52;3.17;;;2.90;;
12840;SDS011;6487;48.626;12.486;2022-10-16T15:17:21;3.40;;;3.10;;
12840;SDS011;6487;48.626;12.486;2022-10-16T15:19:49;3.50;;;3.00;;
12840;SDS011;6487;48.626;12.486;2022-10-16T15:22:19;4.10;;;2.63;;
12840;SDS011;6487;48.626;12.486;2022-10-16T15:24:49;4.23;;;3.33;;
12840;SDS011;6487;48.626;12.486;2022-10-16T15:27:17;4.27;;;3.73;;
12840;SDS011;6487;48.626;12.486;2022-10-16T15:29:46;3.43;;;3.20;;